sensor_id;sensor_type;location;lat;lon;timestamp;P1;durP1;ratioP1;P2;durP2;ratioP2
6823;SDS011;58633;49.470;11.004;2022-07-26T00:02:02;4.25;;;3.42;;
6823;SDS011;58633;49.470;11.004;2022-07-26T00:04:28;6.47;;;3.10;;
6823;SDS011;58633;49.470;11.004;2022-07-26T00:06:54;2.90;;;2.70;;
6823;SDS011;58633;49.470;11.004;2022-07-26T00:09:20;3.83;;;3.03;;
6823;SDS011;58633;49.470;11.004;2022-07-26T00:11:45;3.08;;;2.78;;
6823;SDS011;58633;49.470;11.004;2022-07-26T00:14:11;3.72;;;2.65;;
6823;SDS011;58633;49.470;11.004;2022-07-26T00:16:37;3.33;;;2.90;;
6823;SDS011;58633;49.470;11.004;2022-07-26T00:19:03;5.85;;;2.88;;
6823;SDS011;58633;49.470;11.004;2022-07-26T00:27:56;6.03;;;2.70;;
6823;SDS011;58633;49.470;11.004;2022-07-26T00:30:22;3.90;;;2.90;;
6823;SDS011;58633;49.470;11.004;2022-07-26T00:32:47;3.28;;;2.97;;
6823;SDS011;58633;49.470;11.004;2022-07-26T00:35:14;4.13;;;3.08;;
6823;SDS011;58633;49.470;11.004;2022-07-26T00:37:40;3.67;;;2.85;;
6823;SDS011;58633;49.470;11.004;2022-07-26T00:40:06;3.85;;;2.85;;
6823;SDS011;58633;49.470;11.004;2022-07-26T00:42:33;3.40;;;2.70;;
6823;SDS011;58633;49.470;11.004;2022-07-26T00:44:58;16.60;;;4.53;;
6823;SDS011;58633;49.470;11.004;2022-07-26T00:47:25;4.97;;;2.80;;
6823;SDS011;58633;49.470;11.004;2022-07-26T00:49:51;4.78;;;2.95;;
6823;SDS011;58633;49.470;11.004;2022-07-26T00:52:16;3.72;;;3.10;;
6823;SDS011;58633;49.470;11.004;2022-07-26T00:54:43;4.72;;;3.00;;
6823;SDS011;58633;49.470;11.004;2022-07-26T00:57:10;5.00;;;2.97;;
6823;SDS011;58633;49.470;11.004;2022-07-26T00:59:37;4.68;;;3.08;;
6823;SDS011;58633;49.470;11.004;2022-07-26T01:02:03;3.50;;;2.70;;
6823;SDS011;58633;49.470;11.004;2022-07-26T01:04:30;3.00;;;2.75;;
6823;SDS011;58633;49.470;11.004;2022-07-26T01:06:56;4.68;;;3.00;;
6823;SDS011;58633;49.470;11.004;2022-07-26T01:09:22;3.40;;;2.65;;
6823;SDS011;58633;49.470;11.004;2022-07-26T01:11:48;5.70;;;3.00;;
6823;SDS011;58633;49.470;11.004;2022-07-26T01:14:13;4.18;;;2.70;;
6823;SDS011;58633;49.470;11.004;2022-07-26T01:16:40;6.57;;;3.08;;
6823;SDS011;58633;49.470;11.004;2022-07-26T01:19:07;3.55;;;2.92;;
6823;SDS011;58633;49.470;11.004;2022-07-26T01:21:33;3.70;;;2.80;;
6823;SDS011;58633;49.470;11.004;2022-07-26T01:23:59;5.65;;;2.95;;
6823;SDS011;58633;49.470;11.004;2022-07-26T01:26:24;5.38;;;2.53;;
6823;SDS011;58633;49.470;11.004;2022-07-26T01:28:50;9.60;;;3.00;;
6823;SDS011;58633;49.470;11.004;2022-07-26T01:31:15;3.75;;;2.80;;
6823;SDS011;58633;49.470;11.004;2022-07-26T01:33:41;6.35;;;2.97;;
6823;SDS011;58633;49.470;11.004;2022-07-26T01:36:07;2.63;;;2.42;;
6823;SDS011;58633;49.470;11.004;2022-07-26T01:38:33;4.32;;;2.65;;
6823;SDS011;58633;49.470;11.004;2022-07-26T01:40:59;5.53;;;3.03;;
6823;SDS011;58633;49.470;11.004;2022-07-26T01:43:25;3.28;;;2.70;;
6823;SDS011;58633;49.470;11.004;2022-07-26T01:45:51;3.60;;;2.90;;
6823;SDS011;58633;49.470;11.004;2022-07-26T01:48:16;3.42;;;2.80;;
6823;SDS011;58633;49.470;11.004;2022-07-26T01:50:42;5.70;;;3.17;;
6823;SDS011;58633;49.470;11.004;2022-07-26T01:53:08;5.65;;;2.88;;
6823;SDS011;58633;49.470;11.004;2022-07-26T01:55:34;4.32;;;3.17;;
6823;SDS011;58633;49.470;11.004;2022-07-26T01:58:02;4.75;;;2.88;;
6823;SDS011;58633;49.470;11.004;2022-07-26T02:00:29;4.80;;;2.70;;
6823;SDS011;58633;49.470;11.004;2022-07-26T02:02:54;6.18;;;2.90;;
6823;SDS011;58633;49.470;11.004;2022-07-26T02:05:20;5.82;;;2.83;;
6823;SDS011;58633;49.470;11.004;2022-07-26T02:07:45;3.85;;;3.00;;
6823;SDS011;58633;49.470;11.004;2022-07-26T02:10:11;5.50;;;3.03;;
6823;SDS011;58633;49.470;11.004;2022-07-26T02:12:37;3.72;;;3.05;;
6823;SDS011;58633;49.470;11.004;2022-07-26T02:15:04;5.00;;;2.83;;
6823;SDS011;58633;49.470;11.004;2022-07-26T02:17:30;5.65;;;3.17;;
6823;SDS011;58633;49.470;11.004;2022-07-26T02:19:56;3.92;;;3.10;;
6823;SDS011;58633;49.470;11.004;2022-07-26T02:22:21;6.63;;;3.00;;
6823;SDS011;58633;49.470;11.004;2022-07-26T02:24:48;7.00;;;3.45;;
6823;SDS011;58633;49.470;11.004;2022-07-26T02:27:14;4.53;;;2.67;;
6823;SDS011;58633;49.470;11.004;2022-07-26T02:29:40;3.97;;;2.90;;
6823;SDS011;58633;49.470;11.004;2022-07-26T02:32:05;3.85;;;3.00;;
6823;SDS011;58633;49.470;11.004;2022-07-26T02:34:31;4.35;;;2.80;;
6823;SDS011;58633;49.470;11.004;2022-07-26T02:36:57;5.18;;;2.80;;
6823;SDS011;58633;49.470;11.004;2022-07-26T02:39:23;2.63;;;2.22;;
6823;SDS011;58633;49.470;11.004;2022-07-26T02:41:55;4.78;;;2.72;;
6823;SDS011;58633;49.470;11.004;2022-07-26T02:44:23;5.50;;;2.60;;
6823;SDS011;58633;49.470;11.004;2022-07-26T02:46:50;7.00;;;2.83;;
6823;SDS011;58633;49.470;11.004;2022-07-26T02:49:16;3.95;;;2.70;;
6823;SDS011;58633;49.470;11.004;2022-07-26T02:51:42;3.13;;;2.70;;
6823;SDS011;58633;49.470;11.004;2022-07-26T02:54:07;2.72;;;2.50;;
6823;SDS011;58633;49.470;11.004;2022-07-26T02:56:33;3.17;;;2.72;;
6823;SDS011;58633;49.470;11.004;2022-07-26T02:58:59;3.75;;;2.58;;
6823;SDS011;58633;49.470;11.004;2022-07-26T03:01:24;3.38;;;2.70;;
6823;SDS011;58633;49.470;11.004;2022-07-26T03:03:50;3.58;;;2.78;;
6823;SDS011;58633;49.470;11.004;2022-07-26T03:06:15;6.18;;;2.90;;
6823;SDS011;58633;49.470;11.004;2022-07-26T03:08:41;3.17;;;2.50;;
6823;SDS011;58633;49.470;11.004;2022-07-26T03:11:07;6.28;;;2.78;;
6823;SDS011;58633;49.470;11.004;2022-07-26T03:13:32;4.53;;;2.65;;
6823;SDS011;58633;49.470;11.004;2022-07-26T03:15:58;5.32;;;2.78;;
6823;SDS011;58633;49.470;11.004;2022-07-26T03:18:23;7.22;;;2.90;;
6823;SDS011;58633;49.470;11.004;2022-07-26T03:20:49;7.07;;;2.50;;
6823;SDS011;58633;49.470;11.004;2022-07-26T03:23:15;2.92;;;2.50;;
6823;SDS011;58633;49.470;11.004;2022-07-26T03:25:40;4.28;;;2.90;;
6823;SDS011;58633;49.470;11.004;2022-07-26T03:28:06;5.57;;;3.05;;
6823;SDS011;58633;49.470;11.004;2022-07-26T03:30:32;5.03;;;2.50;;
6823;SDS011;58633;49.470;11.004;2022-07-26T03:32:57;5.35;;;2.90;;
6823;SDS011;58633;49.470;11.004;2022-07-26T03:35:23;4.65;;;2.80;;
6823;SDS011;58633;49.470;11.004;2022-07-26T03:37:49;3.08;;;2.40;;
6823;SDS011;58633;49.470;11.004;2022-07-26T03:40:16;3.78;;;2.80;;
6823;SDS011;58633;49.470;11.004;2022-07-26T03:42:45;4.40;;;2.50;;
6823;SDS011;58633;49.470;11.004;2022-07-26T03:45:13;4.63;;;2.80;;
6823;SDS011;58633;49.470;11.004;2022-07-26T03:47:39;3.03;;;2.60;;
6823;SDS011;58633;49.470;11.004;2022-07-26T03:50:05;6.75;;;2.42;;
6823;SDS011;58633;49.470;11.004;2022-07-26T03:52:31;5.07;;;2.50;;
6823;SDS011;58633;49.470;11.004;2022-07-26T03:54:57;6.75;;;2.80;;
6823;SDS011;58633;49.470;11.004;2022-07-26T03:57:23;3.80;;;2.40;;
6823;SDS011;58633;49.470;11.004;2022-07-26T03:59:48;3.80;;;2.33;;
6823;SDS011;58633;49.470;11.004;2022-07-26T04:02:14;3.42;;;2.40;;
6823;SDS011;58633;49.470;11.004;2022-07-26T04:04:39;3.65;;;2.72;;
6823;SDS011;58633;49.470;11.004;2022-07-26T04:07:05;3.17;;;2.28;;
6823;SDS011;58633;49.470;11.004;2022-07-26T04:09:31;7.75;;;2.63;;
6823;SDS011;58633;49.470;11.004;2022-07-26T04:11:56;6.32;;;2.42;;
6823;SDS011;58633;49.470;11.004;2022-07-26T04:14:22;5.35;;;2.70;;
6823;SDS011;58633;49.470;11.004;2022-07-26T04:16:47;3.33;;;2.50;;
6823;SDS011;58633;49.470;11.004;2022-07-26T04:19:13;4.35;;;2.28;;
6823;SDS011;58633;49.470;11.004;2022-07-26T04:21:38;4.47;;;2.50;;
6823;SDS011;58633;49.470;11.004;2022-07-26T04:24:04;4.53;;;2.45;;
6823;SDS011;58633;49.470;11.004;2022-07-26T04:26:30;3.83;;;2.47;;
6823;SDS011;58633;49.470;11.004;2022-07-26T04:28:56;4.82;;;2.40;;
6823;SDS011;58633;49.470;11.004;2022-07-26T04:31:22;3.03;;;2.60;;
6823;SDS011;58633;49.470;11.004;2022-07-26T04:33:48;3.03;;;2.67;;
6823;SDS011;58633;49.470;11.004;2022-07-26T04:36:14;3.03;;;2.35;;
6823;SDS011;58633;49.470;11.004;2022-07-26T04:38:39;4.53;;;2.25;;
6823;SDS011;58633;49.470;11.004;2022-07-26T04:41:05;4.80;;;2.60;;
6823;SDS011;58633;49.470;11.004;2022-07-26T04:43:32;4.88;;;2.38;;
6823;SDS011;58633;49.470;11.004;2022-07-26T04:45:57;3.25;;;2.45;;
6823;SDS011;58633;49.470;11.004;2022-07-26T04:48:23;4.25;;;2.50;;
6823;SDS011;58633;49.470;11.004;2022-07-26T04:50:49;2.72;;;2.22;;
6823;SDS011;58633;49.470;11.004;2022-07-26T04:53:15;4.85;;;2.50;;
6823;SDS011;58633;49.470;11.004;2022-07-26T04:55:41;4.00;;;2.30;;
6823;SDS011;58633;49.470;11.004;2022-07-26T04:58:07;3.45;;;2.70;;
6823;SDS011;58633;49.470;11.004;2022-07-26T05:00:33;4.32;;;2.40;;
6823;SDS011;58633;49.470;11.004;2022-07-26T05:03:00;4.10;;;2.50;;
6823;SDS011;58633;49.470;11.004;2022-07-26T05:05:28;4.55;;;2.92;;
6823;SDS011;58633;49.470;11.004;2022-07-26T05:07:55;5.38;;;2.53;;
6823;SDS011;58633;49.470;11.004;2022-07-26T05:10:27;6.55;;;2.50;;
6823;SDS011;58633;49.470;11.004;2022-07-26T05:12:54;4.30;;;2.53;;
6823;SDS011;58633;49.470;11.004;2022-07-26T05:15:20;3.30;;;2.20;;
6823;SDS011;58633;49.470;11.004;2022-07-26T05:17:45;4.20;;;2.72;;
6823;SDS011;58633;49.470;11.004;2022-07-26T05:20:12;6.85;;;3.42;;
6823;SDS011;58633;49.470;11.004;2022-07-26T05:22:39;2.67;;;2.30;;
6823;SDS011;58633;49.470;11.004;2022-07-26T05:25:06;3.67;;;2.40;;
6823;SDS011;58633;49.470;11.004;2022-07-26T05:27:32;4.63;;;2.45;;
6823;SDS011;58633;49.470;11.004;2022-07-26T05:29:57;5.25;;;2.72;;
6823;SDS011;58633;49.470;11.004;2022-07-26T05:32:23;3.58;;;2.63;;
6823;SDS011;58633;49.470;11.004;2022-07-26T05:34:48;5.55;;;2.60;;
6823;SDS011;58633;49.470;11.004;2022-07-26T05:37:15;2.90;;;2.35;;
6823;SDS011;58633;49.470;11.004;2022-07-26T05:39:40;3.92;;;2.50;;
6823;SDS011;58633;49.470;11.004;2022-07-26T05:42:06;4.03;;;3.13;;
6823;SDS011;58633;49.470;11.004;2022-07-26T05:44:32;5.05;;;2.47;;
6823;SDS011;58633;49.470;11.004;2022-07-26T05:46:57;2.55;;;2.15;;
6823;SDS011;58633;49.470;11.004;2022-07-26T05:49:23;4.35;;;2.22;;
6823;SDS011;58633;49.470;11.004;2022-07-26T05:51:50;3.58;;;2.33;;
6823;SDS011;58633;49.470;11.004;2022-07-26T05:54:15;4.75;;;2.75;;
6823;SDS011;58633;49.470;11.004;2022-07-26T05:56:42;3.42;;;2.47;;
6823;SDS011;58633;49.470;11.004;2022-07-26T05:59:08;5.00;;;2.88;;
6823;SDS011;58633;49.470;11.004;2022-07-26T06:01:33;4.72;;;2.35;;
6823;SDS011;58633;49.470;11.004;2022-07-26T06:03:59;6.72;;;2.40;;
6823;SDS011;58633;49.470;11.004;2022-07-26T06:06:25;4.60;;;2.50;;
6823;SDS011;58633;49.470;11.004;2022-07-26T06:08:51;3.20;;;2.20;;
6823;SDS011;58633;49.470;11.004;2022-07-26T06:11:16;3.25;;;2.20;;
6823;SDS011;58633;49.470;11.004;2022-07-26T06:13:42;2.97;;;2.50;;
6823;SDS011;58633;49.470;11.004;2022-07-26T06:16:07;5.68;;;2.55;;
6823;SDS011;58633;49.470;11.004;2022-07-26T06:18:33;3.92;;;2.78;;
6823;SDS011;58633;49.470;11.004;2022-07-26T06:20:59;6.35;;;2.50;;
6823;SDS011;58633;49.470;11.004;2022-07-26T06:23:24;4.45;;;2.60;;
6823;SDS011;58633;49.470;11.004;2022-07-26T06:25:50;5.43;;;2.58;;
6823;SDS011;58633;49.470;11.004;2022-07-26T06:28:15;6.10;;;2.42;;
6823;SDS011;58633;49.470;11.004;2022-07-26T06:30:42;4.35;;;2.65;;
6823;SDS011;58633;49.470;11.004;2022-07-26T06:33:09;5.20;;;2.50;;
6823;SDS011;58633;49.470;11.004;2022-07-26T06:35:35;5.75;;;2.70;;
6823;SDS011;58633;49.470;11.004;2022-07-26T06:38:03;7.32;;;3.13;;
6823;SDS011;58633;49.470;11.004;2022-07-26T06:40:29;5.68;;;2.83;;
6823;SDS011;58633;49.470;11.004;2022-07-26T06:42:55;3.17;;;2.70;;
6823;SDS011;58633;49.470;11.004;2022-07-26T06:45:20;4.10;;;2.78;;
6823;SDS011;58633;49.470;11.004;2022-07-26T06:47:46;4.68;;;2.50;;
6823;SDS011;58633;49.470;11.004;2022-07-26T06:50:11;3.70;;;2.90;;
6823;SDS011;58633;49.470;11.004;2022-07-26T06:52:37;7.20;;;2.67;;
6823;SDS011;58633;49.470;11.004;2022-07-26T06:55:03;5.40;;;2.70;;
6823;SDS011;58633;49.470;11.004;2022-07-26T06:57:30;2.50;;;2.22;;
6823;SDS011;58633;49.470;11.004;2022-07-26T06:59:55;3.53;;;2.50;;
6823;SDS011;58633;49.470;11.004;2022-07-26T07:02:21;4.78;;;2.50;;
6823;SDS011;58633;49.470;11.004;2022-07-26T07:04:47;3.35;;;2.50;;
6823;SDS011;58633;49.470;11.004;2022-07-26T07:07:12;3.13;;;2.60;;
6823;SDS011;58633;49.470;11.004;2022-07-26T07:09:38;5.45;;;2.78;;
6823;SDS011;58633;49.470;11.004;2022-07-26T07:12:04;3.08;;;2.22;;
6823;SDS011;58633;49.470;11.004;2022-07-26T07:14:31;5.80;;;2.47;;
6823;SDS011;58633;49.470;11.004;2022-07-26T07:16:57;4.20;;;2.15;;
6823;SDS011;58633;49.470;11.004;2022-07-26T07:19:23;4.05;;;2.28;;
6823;SDS011;58633;49.470;11.004;2022-07-26T07:21:50;3.13;;;1.90;;
6823;SDS011;58633;49.470;11.004;2022-07-26T07:24:17;2.25;;;1.90;;
6823;SDS011;58633;49.470;11.004;2022-07-26T07:26:43;4.10;;;1.90;;
6823;SDS011;58633;49.470;11.004;2022-07-26T07:29:09;7.03;;;2.40;;
6823;SDS011;58633;49.470;11.004;2022-07-26T07:31:38;3.35;;;2.08;;
6823;SDS011;58633;49.470;11.004;2022-07-26T07:34:06;6.90;;;2.50;;
6823;SDS011;58633;49.470;11.004;2022-07-26T07:36:31;6.30;;;2.15;;
6823;SDS011;58633;49.470;11.004;2022-07-26T07:38:57;4.05;;;1.85;;
6823;SDS011;58633;49.470;11.004;2022-07-26T07:41:23;3.53;;;2.25;;
6823;SDS011;58633;49.470;11.004;2022-07-26T07:43:49;1.98;;;1.67;;
6823;SDS011;58633;49.470;11.004;2022-07-26T07:46:14;2.35;;;1.77;;
6823;SDS011;58633;49.470;11.004;2022-07-26T07:48:41;2.53;;;1.90;;
6823;SDS011;58633;49.470;11.004;2022-07-26T07:51:07;4.50;;;1.90;;
6823;SDS011;58633;49.470;11.004;2022-07-26T07:53:33;1.80;;;1.40;;
6823;SDS011;58633;49.470;11.004;2022-07-26T07:55:59;6.85;;;1.67;;
6823;SDS011;58633;49.470;11.004;2022-07-26T07:58:25;3.10;;;1.60;;
6823;SDS011;58633;49.470;11.004;2022-07-26T08:00:50;3.10;;;1.83;;
6823;SDS011;58633;49.470;11.004;2022-07-26T08:03:17;2.63;;;1.70;;
6823;SDS011;58633;49.470;11.004;2022-07-26T08:05:43;2.13;;;1.90;;
6823;SDS011;58633;49.470;11.004;2022-07-26T08:08:09;3.00;;;2.22;;
6823;SDS011;58633;49.470;11.004;2022-07-26T08:10:34;2.22;;;1.50;;
6823;SDS011;58633;49.470;11.004;2022-07-26T08:13:00;4.13;;;1.60;;
6823;SDS011;58633;49.470;11.004;2022-07-26T08:15:26;1.98;;;1.67;;
6823;SDS011;58633;49.470;11.004;2022-07-26T08:17:52;3.35;;;1.70;;
6823;SDS011;58633;49.470;11.004;2022-07-26T08:20:18;1.52;;;1.20;;
6823;SDS011;58633;49.470;11.004;2022-07-26T08:22:44;1.80;;;1.65;;
6823;SDS011;58633;49.470;11.004;2022-07-26T08:25:09;3.33;;;1.30;;
6823;SDS011;58633;49.470;11.004;2022-07-26T08:27:35;3.17;;;1.40;;
6823;SDS011;58633;49.470;11.004;2022-07-26T08:30:02;3.45;;;2.00;;
6823;SDS011;58633;49.470;11.004;2022-07-26T08:32:28;6.28;;;1.67;;
6823;SDS011;58633;49.470;11.004;2022-07-26T08:34:55;3.67;;;1.60;;
6823;SDS011;58633;49.470;11.004;2022-07-26T08:37:20;6.22;;;1.45;;
6823;SDS011;58633;49.470;11.004;2022-07-26T08:39:46;5.63;;;1.63;;
6823;SDS011;58633;49.470;11.004;2022-07-26T08:42:13;2.55;;;1.58;;
6823;SDS011;58633;49.470;11.004;2022-07-26T08:44:43;2.47;;;1.52;;
6823;SDS011;58633;49.470;11.004;2022-07-26T08:47:13;2.38;;;1.55;;
6823;SDS011;58633;49.470;11.004;2022-07-26T08:49:41;2.15;;;1.95;;
6823;SDS011;58633;49.470;11.004;2022-07-26T08:52:07;2.28;;;1.67;;
6823;SDS011;58633;49.470;11.004;2022-07-26T08:54:34;8.02;;;1.58;;
6823;SDS011;58633;49.470;11.004;2022-07-26T08:57:00;3.10;;;1.45;;
6823;SDS011;58633;49.470;11.004;2022-07-26T08:59:25;3.05;;;1.70;;
6823;SDS011;58633;49.470;11.004;2022-07-26T09:01:53;1.50;;;1.40;;
6823;SDS011;58633;49.470;11.004;2022-07-26T09:04:30;2.65;;;1.55;;
6823;SDS011;58633;49.470;11.004;2022-07-26T09:07:04;1.75;;;1.40;;
6823;SDS011;58633;49.470;11.004;2022-07-26T09:09:33;1.60;;;1.45;;
6823;SDS011;58633;49.470;11.004;2022-07-26T09:12:14;3.08;;;1.50;;
6823;SDS011;58633;49.470;11.004;2022-07-26T09:14:42;1.95;;;1.42;;
6823;SDS011;58633;49.470;11.004;2022-07-26T09:17:10;3.05;;;1.50;;
6823;SDS011;58633;49.470;11.004;2022-07-26T09:19:37;5.03;;;1.70;;
6823;SDS011;58633;49.470;11.004;2022-07-26T09:22:09;2.85;;;1.60;;
6823;SDS011;58633;49.470;11.004;2022-07-26T09:24:38;1.52;;;1.33;;
6823;SDS011;58633;49.470;11.004;2022-07-26T09:27:12;3.88;;;1.52;;
6823;SDS011;58633;49.470;11.004;2022-07-26T09:29:52;1.60;;;1.40;;
6823;SDS011;58633;49.470;11.004;2022-07-26T09:32:25;2.75;;;1.40;;
6823;SDS011;58633;49.470;11.004;2022-07-26T09:34:55;2.42;;;1.52;;
6823;SDS011;58633;49.470;11.004;2022-07-26T09:37:33;2.58;;;1.35;;
6823;SDS011;58633;49.470;11.004;2022-07-26T09:40:03;1.65;;;1.30;;
6823;SDS011;58633;49.470;11.004;2022-07-26T09:42:30;2.92;;;1.55;;
6823;SDS011;58633;49.470;11.004;2022-07-26T09:44:56;3.38;;;1.33;;
6823;SDS011;58633;49.470;11.004;2022-07-26T09:47:22;2.40;;;1.65;;
6823;SDS011;58633;49.470;11.004;2022-07-26T09:50:09;1.98;;;1.67;;
6823;SDS011;58633;49.470;11.004;2022-07-26T09:52:34;5.70;;;2.03;;
6823;SDS011;58633;49.470;11.004;2022-07-26T09:55:03;4.28;;;1.85;;
6823;SDS011;58633;49.470;11.004;2022-07-26T09:57:29;2.45;;;1.55;;
6823;SDS011;58633;49.470;11.004;2022-07-26T09:59:58;2.25;;;1.63;;
6823;SDS011;58633;49.470;11.004;2022-07-26T10:02:24;3.13;;;1.85;;
6823;SDS011;58633;49.470;11.004;2022-07-26T10:04:49;2.33;;;1.70;;
6823;SDS011;58633;49.470;11.004;2022-07-26T10:07:15;2.47;;;1.77;;
6823;SDS011;58633;49.470;11.004;2022-07-26T10:09:44;2.72;;;1.80;;
6823;SDS011;58633;49.470;11.004;2022-07-26T10:12:48;2.42;;;1.70;;
6823;SDS011;58633;49.470;11.004;2022-07-26T10:18:01;3.88;;;1.70;;
6823;SDS011;58633;49.470;11.004;2022-07-26T10:26:06;4.80;;;1.73;;
6823;SDS011;58633;49.470;11.004;2022-07-26T10:28:35;4.15;;;1.70;;
6823;SDS011;58633;49.470;11.004;2022-07-26T10:31:21;3.92;;;1.60;;
6823;SDS011;58633;49.470;11.004;2022-07-26T10:33:49;2.92;;;1.40;;
6823;SDS011;58633;49.470;11.004;2022-07-26T10:36:24;2.95;;;1.30;;
6823;SDS011;58633;49.470;11.004;2022-07-26T10:39:13;2.17;;;1.40;;
6823;SDS011;58633;49.470;11.004;2022-07-26T10:41:44;2.55;;;1.40;;
6823;SDS011;58633;49.470;11.004;2022-07-26T10:44:20;13.00;;;1.48;;
6823;SDS011;58633;49.470;11.004;2022-07-26T10:47:09;4.15;;;1.40;;
6823;SDS011;58633;49.470;11.004;2022-07-26T10:49:37;2.20;;;1.50;;
6823;SDS011;58633;49.470;11.004;2022-07-26T10:52:12;4.38;;;1.38;;
6823;SDS011;58633;49.470;11.004;2022-07-26T10:57:30;3.63;;;1.40;;
6823;SDS011;58633;49.470;11.004;2022-07-26T11:00:02;2.00;;;1.30;;
6823;SDS011;58633;49.470;11.004;2022-07-26T11:02:36;1.75;;;1.15;;
6823;SDS011;58633;49.470;11.004;2022-07-26T11:05:03;2.42;;;1.13;;
6823;SDS011;58633;49.470;11.004;2022-07-26T11:07:46;2.05;;;1.13;;
6823;SDS011;58633;49.470;11.004;2022-07-26T11:10:13;3.58;;;0.90;;
6823;SDS011;58633;49.470;11.004;2022-07-26T11:12:38;3.97;;;1.17;;
6823;SDS011;58633;49.470;11.004;2022-07-26T11:15:17;2.70;;;0.90;;
6823;SDS011;58633;49.470;11.004;2022-07-26T11:17:43;1.10;;;1.00;;
6823;SDS011;58633;49.470;11.004;2022-07-26T11:20:08;2.22;;;0.95;;
6823;SDS011;58633;49.470;11.004;2022-07-26T11:22:36;2.58;;;1.15;;
6823;SDS011;58633;49.470;11.004;2022-07-26T11:25:02;2.38;;;1.23;;
6823;SDS011;58633;49.470;11.004;2022-07-26T11:27:28;1.10;;;1.00;;
6823;SDS011;58633;49.470;11.004;2022-07-26T11:29:54;2.00;;;1.00;;
6823;SDS011;58633;49.470;11.004;2022-07-26T11:32:22;4.10;;;1.20;;
6823;SDS011;58633;49.470;11.004;2022-07-26T11:35:02;0.93;;;0.90;;
6823;SDS011;58633;49.470;11.004;2022-07-26T11:37:29;1.65;;;1.10;;
6823;SDS011;58633;49.470;11.004;2022-07-26T11:39:56;1.38;;;0.98;;
6823;SDS011;58633;49.470;11.004;2022-07-26T11:42:22;1.02;;;0.93;;
6823;SDS011;58633;49.470;11.004;2022-07-26T11:44:48;2.20;;;1.17;;
6823;SDS011;58633;49.470;11.004;2022-07-26T11:49:42;5.97;;;1.15;;
6823;SDS011;58633;49.470;11.004;2022-07-26T11:52:07;3.05;;;1.00;;
6823;SDS011;58633;49.470;11.004;2022-07-26T11:54:47;1.40;;;1.08;;
6823;SDS011;58633;49.470;11.004;2022-07-26T11:57:15;2.90;;;1.10;;
6823;SDS011;58633;49.470;11.004;2022-07-26T11:59:42;5.40;;;1.13;;
6823;SDS011;58633;49.470;11.004;2022-07-26T12:02:09;2.63;;;1.00;;
6823;SDS011;58633;49.470;11.004;2022-07-26T12:04:39;3.47;;;1.05;;
6823;SDS011;58633;49.470;11.004;2022-07-26T12:09:40;1.15;;;0.95;;
6823;SDS011;58633;49.470;11.004;2022-07-26T12:12:21;1.00;;;0.90;;
6823;SDS011;58633;49.470;11.004;2022-07-26T12:15:01;3.72;;;1.15;;
6823;SDS011;58633;49.470;11.004;2022-07-26T12:17:30;1.52;;;1.00;;
6823;SDS011;58633;49.470;11.004;2022-07-26T12:19:57;2.95;;;1.00;;
6823;SDS011;58633;49.470;11.004;2022-07-26T12:22:35;3.65;;;1.00;;
6823;SDS011;58633;49.470;11.004;2022-07-26T12:25:02;2.38;;;0.98;;
6823;SDS011;58633;49.470;11.004;2022-07-26T12:27:31;3.20;;;0.95;;
6823;SDS011;58633;49.470;11.004;2022-07-26T12:32:33;1.73;;;1.10;;
6823;SDS011;58633;49.470;11.004;2022-07-26T12:35:02;3.13;;;0.90;;
6823;SDS011;58633;49.470;11.004;2022-07-26T12:40:15;0.75;;;0.75;;
6823;SDS011;58633;49.470;11.004;2022-07-26T12:45:16;2.13;;;1.10;;
6823;SDS011;58633;49.470;11.004;2022-07-26T12:47:44;1.50;;;0.90;;
6823;SDS011;58633;49.470;11.004;2022-07-26T12:50:12;1.48;;;0.88;;
6823;SDS011;58633;49.470;11.004;2022-07-26T12:52:38;2.45;;;0.90;;
6823;SDS011;58633;49.470;11.004;2022-07-26T12:55:05;2.95;;;1.10;;
6823;SDS011;58633;49.470;11.004;2022-07-26T12:57:32;1.58;;;1.10;;
6823;SDS011;58633;49.470;11.004;2022-07-26T12:59:58;1.50;;;0.98;;
6823;SDS011;58633;49.470;11.004;2022-07-26T13:02:24;1.50;;;1.10;;
6823;SDS011;58633;49.470;11.004;2022-07-26T13:04:50;1.35;;;1.00;;
6823;SDS011;58633;49.470;11.004;2022-07-26T13:07:17;2.25;;;1.10;;
6823;SDS011;58633;49.470;11.004;2022-07-26T13:09:44;2.20;;;1.20;;
6823;SDS011;58633;49.470;11.004;2022-07-26T13:12:10;1.83;;;1.20;;
6823;SDS011;58633;49.470;11.004;2022-07-26T13:14:38;2.70;;;1.00;;
6823;SDS011;58633;49.470;11.004;2022-07-26T13:17:05;1.38;;;1.02;;
6823;SDS011;58633;49.470;11.004;2022-07-26T13:19:31;1.23;;;1.08;;
6823;SDS011;58633;49.470;11.004;2022-07-26T13:21:58;3.03;;;1.05;;
6823;SDS011;58633;49.470;11.004;2022-07-26T13:24:26;1.35;;;1.17;;
6823;SDS011;58633;49.470;11.004;2022-07-26T13:26:53;4.00;;;1.08;;
6823;SDS011;58633;49.470;11.004;2022-07-26T13:29:19;1.23;;;1.08;;
6823;SDS011;58633;49.470;11.004;2022-07-26T13:31:45;1.33;;;1.00;;
6823;SDS011;58633;49.470;11.004;2022-07-26T13:34:11;4.13;;;0.98;;
6823;SDS011;58633;49.470;11.004;2022-07-26T13:36:37;1.27;;;0.93;;
6823;SDS011;58633;49.470;11.004;2022-07-26T13:39:03;2.10;;;1.10;;
6823;SDS011;58633;49.470;11.004;2022-07-26T13:41:29;1.30;;;0.98;;
6823;SDS011;58633;49.470;11.004;2022-07-26T13:43:55;2.15;;;1.20;;
6823;SDS011;58633;49.470;11.004;2022-07-26T13:46:21;1.00;;;1.00;;
6823;SDS011;58633;49.470;11.004;2022-07-26T13:48:47;2.33;;;1.25;;
6823;SDS011;58633;49.470;11.004;2022-07-26T13:51:13;1.75;;;1.00;;
6823;SDS011;58633;49.470;11.004;2022-07-26T13:53:40;2.88;;;1.30;;
6823;SDS011;58633;49.470;11.004;2022-07-26T13:56:06;3.55;;;1.15;;
6823;SDS011;58633;49.470;11.004;2022-07-26T13:58:32;1.00;;;1.00;;
6823;SDS011;58633;49.470;11.004;2022-07-26T14:00:59;2.03;;;0.90;;
6823;SDS011;58633;49.470;11.004;2022-07-26T14:03:26;0.85;;;0.80;;
6823;SDS011;58633;49.470;11.004;2022-07-26T14:05:51;0.98;;;0.70;;
6823;SDS011;58633;49.470;11.004;2022-07-26T14:08:17;0.75;;;0.70;;
6823;SDS011;58633;49.470;11.004;2022-07-26T14:10:43;2.70;;;0.90;;
6823;SDS011;58633;49.470;11.004;2022-07-26T14:13:08;2.65;;;0.80;;
6823;SDS011;58633;49.470;11.004;2022-07-26T14:15:34;1.60;;;0.70;;
6823;SDS011;58633;49.470;11.004;2022-07-26T14:18:00;0.85;;;0.75;;
6823;SDS011;58633;49.470;11.004;2022-07-26T14:20:27;0.85;;;0.80;;
6823;SDS011;58633;49.470;11.004;2022-07-26T14:22:52;0.75;;;0.75;;
6823;SDS011;58633;49.470;11.004;2022-07-26T14:25:21;3.17;;;0.70;;
6823;SDS011;58633;49.470;11.004;2022-07-26T14:27:48;0.63;;;0.60;;
6823;SDS011;58633;49.470;11.004;2022-07-26T14:30:15;1.15;;;0.70;;
6823;SDS011;58633;49.470;11.004;2022-07-26T14:32:41;1.40;;;0.77;;
6823;SDS011;58633;49.470;11.004;2022-07-26T14:35:07;0.73;;;0.73;;
6823;SDS011;58633;49.470;11.004;2022-07-26T14:37:33;1.10;;;0.90;;
6823;SDS011;58633;49.470;11.004;2022-07-26T14:39:58;0.88;;;0.77;;
6823;SDS011;58633;49.470;11.004;2022-07-26T14:42:24;0.90;;;0.90;;
6823;SDS011;58633;49.470;11.004;2022-07-26T14:44:49;1.58;;;0.57;;
6823;SDS011;58633;49.470;11.004;2022-07-26T14:47:15;0.60;;;0.60;;
6823;SDS011;58633;49.470;11.004;2022-07-26T14:49:40;0.60;;;0.60;;
6823;SDS011;58633;49.470;11.004;2022-07-26T14:52:06;1.95;;;0.73;;
6823;SDS011;58633;49.470;11.004;2022-07-26T14:54:33;2.55;;;0.65;;
6823;SDS011;58633;49.470;11.004;2022-07-26T14:56:58;1.90;;;0.70;;
6823;SDS011;58633;49.470;11.004;2022-07-26T14:59:24;1.90;;;0.70;;
6823;SDS011;58633;49.470;11.004;2022-07-26T15:01:49;0.57;;;0.47;;
6823;SDS011;58633;49.470;11.004;2022-07-26T15:04:15;0.70;;;0.70;;
6823;SDS011;58633;49.470;11.004;2022-07-26T15:06:41;0.60;;;0.60;;
6823;SDS011;58633;49.470;11.004;2022-07-26T15:09:06;1.88;;;0.57;;
6823;SDS011;58633;49.470;11.004;2022-07-26T15:11:33;1.25;;;0.70;;
6823;SDS011;58633;49.470;11.004;2022-07-26T15:13:59;2.85;;;0.60;;
6823;SDS011;58633;49.470;11.004;2022-07-26T15:16:26;0.60;;;0.60;;
6823;SDS011;58633;49.470;11.004;2022-07-26T15:18:51;0.70;;;0.70;;